sensor_id;sensor_type;location;lat;lon;timestamp;P1;durP1;ratioP1;P2;durP2;ratioP2
13457;SDS011;6801;53.018;11.560;2023-07-24T00:00:34;2.47;;;1.30;;
13457;SDS011;6801;53.018;11.560;2023-07-24T00:03:02;3.80;;;1.30;;
13457;SDS011;6801;53.018;11.560;2023-07-24T00:05:31;2.95;;;1.48;;
13457;SDS011;6801;53.018;11.560;2023-07-24T00:07:58;2.42;;;1.50;;
13457;SDS011;6801;53.018;11.560;2023-07-24T00:10:26;2.80;;;1.42;;
13457;SDS011;6801;53.018;11.560;2023-07-24T00:12:53;3.20;;;1.45;;
13457;SDS011;6801;53.018;11.560;2023-07-24T00:15:20;2.70;;;1.55;;
13457;SDS011;6801;53.018;11.560;2023-07-24T00:17:48;2.60;;;1.35;;
13457;SDS011;6801;53.018;11.560;2023-07-24T00:20:16;2.13;;;1.30;;
13457;SDS011;6801;53.018;11.560;2023-07-24T00:22:45;1.77;;;1.10;;
13457;SDS011;6801;53.018;11.560;2023-07-24T00:25:12;2.22;;;1.65;;
13457;SDS011;6801;53.018;11.560;2023-07-24T00:27:40;1.98;;;1.40;;
13457;SDS011;6801;53.018;11.560;2023-07-24T00:30:08;2.28;;;1.33;;
13457;SDS011;6801;53.018;11.560;2023-07-24T00:32:36;4.97;;;1.38;;
13457;SDS011;6801;53.018;11.560;2023-07-24T00:35:04;1.92;;;1.20;;
13457;SDS011;6801;53.018;11.560;2023-07-24T00:37:34;3.05;;;1.80;;
13457;SDS011;6801;53.018;11.560;2023-07-24T00:40:03;1.88;;;1.30;;
13457;SDS011;6801;53.018;11.560;2023-07-24T00:42:31;2.08;;;1.42;;
13457;SDS011;6801;53.018;11.560;2023-07-24T00:44:58;1.85;;;1.33;;
13457;SDS011;6801;53.018;11.560;2023-07-24T00:47:26;1.98;;;1.30;;
13457;SDS011;6801;53.018;11.560;2023-07-24T00:49:54;2.15;;;1.40;;
13457;SDS011;6801;53.018;11.560;2023-07-24T00:52:22;2.63;;;1.42;;
13457;SDS011;6801;53.018;11.560;2023-07-24T00:54:50;3.08;;;1.67;;
13457;SDS011;6801;53.018;11.560;2023-07-24T00:57:19;2.70;;;1.33;;
13457;SDS011;6801;53.018;11.560;2023-07-24T00:59:47;3.25;;;1.30;;
13457;SDS011;6801;53.018;11.560;2023-07-24T01:02:14;2.67;;;1.60;;
13457;SDS011;6801;53.018;11.560;2023-07-24T01:04:41;2.38;;;1.63;;
13457;SDS011;6801;53.018;11.560;2023-07-24T01:07:09;1.92;;;1.35;;
13457;SDS011;6801;53.018;11.560;2023-07-24T01:09:36;2.88;;;1.73;;
13457;SDS011;6801;53.018;11.560;2023-07-24T01:12:06;2.13;;;1.35;;
13457;SDS011;6801;53.018;11.560;2023-07-24T01:14:42;3.40;;;1.33;;
13457;SDS011;6801;53.018;11.560;2023-07-24T01:17:14;2.30;;;1.60;;
13457;SDS011;6801;53.018;11.560;2023-07-24T01:19:45;2.65;;;1.30;;
13457;SDS011;6801;53.018;11.560;2023-07-24T01:22:19;3.75;;;1.80;;
13457;SDS011;6801;53.018;11.560;2023-07-24T01:24:56;2.58;;;1.60;;
13457;SDS011;6801;53.018;11.560;2023-07-24T01:27:33;2.92;;;1.40;;
13457;SDS011;6801;53.018;11.560;2023-07-24T01:30:00;3.05;;;1.63;;
13457;SDS011;6801;53.018;11.560;2023-07-24T01:32:27;2.10;;;1.17;;
13457;SDS011;6801;53.018;11.560;2023-07-24T01:34:54;1.83;;;1.27;;
13457;SDS011;6801;53.018;11.560;2023-07-24T01:37:21;1.90;;;1.40;;
13457;SDS011;6801;53.018;11.560;2023-07-24T01:39:50;2.38;;;1.52;;
13457;SDS011;6801;53.018;11.560;2023-07-24T01:42:18;2.90;;;1.38;;
13457;SDS011;6801;53.018;11.560;2023-07-24T01:44:52;3.92;;;1.77;;
13457;SDS011;6801;53.018;11.560;2023-07-24T01:47:20;2.92;;;1.50;;
13457;SDS011;6801;53.018;11.560;2023-07-24T01:49:48;2.78;;;1.40;;
13457;SDS011;6801;53.018;11.560;2023-07-24T01:52:15;3.72;;;1.77;;
13457;SDS011;6801;53.018;11.560;2023-07-24T01:54:42;2.10;;;1.30;;
13457;SDS011;6801;53.018;11.560;2023-07-24T01:57:10;3.85;;;1.45;;
13457;SDS011;6801;53.018;11.560;2023-07-24T01:59:37;3.90;;;1.50;;
13457;SDS011;6801;53.018;11.560;2023-07-24T02:02:05;5.22;;;1.60;;
13457;SDS011;6801;53.018;11.560;2023-07-24T02:04:33;2.38;;;1.48;;
13457;SDS011;6801;53.018;11.560;2023-07-24T02:07:02;2.47;;;1.58;;
13457;SDS011;6801;53.018;11.560;2023-07-24T02:09:29;1.90;;;1.33;;
13457;SDS011;6801;53.018;11.560;2023-07-24T02:11:57;3.00;;;1.80;;
13457;SDS011;6801;53.018;11.560;2023-07-24T02:14:24;3.10;;;1.52;;
13457;SDS011;6801;53.018;11.560;2023-07-24T02:16:52;3.65;;;1.70;;
13457;SDS011;6801;53.018;11.560;2023-07-24T02:19:20;2.63;;;1.77;;
13457;SDS011;6801;53.018;11.560;2023-07-24T02:21:47;3.85;;;1.60;;
13457;SDS011;6801;53.018;11.560;2023-07-24T02:24:14;2.65;;;1.38;;
13457;SDS011;6801;53.018;11.560;2023-07-24T02:26:41;3.30;;;1.88;;
13457;SDS011;6801;53.018;11.560;2023-07-24T02:29:08;2.35;;;1.65;;
13457;SDS011;6801;53.018;11.560;2023-07-24T02:31:35;2.28;;;1.60;;
13457;SDS011;6801;53.018;11.560;2023-07-24T02:34:02;2.13;;;1.45;;
13457;SDS011;6801;53.018;11.560;2023-07-24T02:36:30;2.25;;;1.63;;
13457;SDS011;6801;53.018;11.560;2023-07-24T02:38:57;2.30;;;1.50;;
13457;SDS011;6801;53.018;11.560;2023-07-24T02:41:25;2.85;;;1.58;;
13457;SDS011;6801;53.018;11.560;2023-07-24T02:43:52;2.97;;;1.63;;
13457;SDS011;6801;53.018;11.560;2023-07-24T02:46:19;6.13;;;1.90;;
13457;SDS011;6801;53.018;11.560;2023-07-24T02:48:46;2.50;;;1.58;;
13457;SDS011;6801;53.018;11.560;2023-07-24T02:51:13;2.17;;;1.40;;
13457;SDS011;6801;53.018;11.560;2023-07-24T02:53:41;3.70;;;1.55;;
13457;SDS011;6801;53.018;11.560;2023-07-24T02:56:08;3.47;;;1.38;;
13457;SDS011;6801;53.018;11.560;2023-07-24T02:58:35;2.03;;;1.20;;
13457;SDS011;6801;53.018;11.560;2023-07-24T03:01:02;4.15;;;1.15;;
13457;SDS011;6801;53.018;11.560;2023-07-24T03:03:31;1.88;;;1.35;;
13457;SDS011;6801;53.018;11.560;2023-07-24T03:05:58;2.58;;;1.30;;
13457;SDS011;6801;53.018;11.560;2023-07-24T03:08:25;1.17;;;0.90;;
13457;SDS011;6801;53.018;11.560;2023-07-24T03:10:54;3.40;;;1.20;;
13457;SDS011;6801;53.018;11.560;2023-07-24T03:13:21;1.58;;;1.10;;
13457;SDS011;6801;53.018;11.560;2023-07-24T03:15:51;2.35;;;1.30;;
13457;SDS011;6801;53.018;11.560;2023-07-24T03:18:19;2.53;;;1.35;;
13457;SDS011;6801;53.018;11.560;2023-07-24T03:20:46;2.00;;;1.20;;
13457;SDS011;6801;53.018;11.560;2023-07-24T03:23:13;1.55;;;1.10;;
13457;SDS011;6801;53.018;11.560;2023-07-24T03:25:41;2.72;;;1.30;;
13457;SDS011;6801;53.018;11.560;2023-07-24T03:28:09;2.88;;;1.45;;
13457;SDS011;6801;53.018;11.560;2023-07-24T03:30:37;2.28;;;1.30;;
13457;SDS011;6801;53.018;11.560;2023-07-24T03:33:04;1.50;;;0.98;;
13457;SDS011;6801;53.018;11.560;2023-07-24T03:35:31;1.45;;;1.20;;
13457;SDS011;6801;53.018;11.560;2023-07-24T03:37:58;2.10;;;1.17;;
13457;SDS011;6801;53.018;11.560;2023-07-24T03:40:26;1.45;;;1.10;;
13457;SDS011;6801;53.018;11.560;2023-07-24T03:42:53;2.15;;;1.15;;
13457;SDS011;6801;53.018;11.560;2023-07-24T03:45:22;1.55;;;1.20;;
13457;SDS011;6801;53.018;11.560;2023-07-24T03:47:49;1.88;;;1.08;;
13457;SDS011;6801;53.018;11.560;2023-07-24T03:50:16;2.72;;;1.60;;
13457;SDS011;6801;53.018;11.560;2023-07-24T03:52:44;2.38;;;1.50;;
13457;SDS011;6801;53.018;11.560;2023-07-24T03:55:11;3.22;;;1.75;;
13457;SDS011;6801;53.018;11.560;2023-07-24T03:57:38;2.13;;;1.60;;
13457;SDS011;6801;53.018;11.560;2023-07-24T04:00:05;2.28;;;1.42;;
13457;SDS011;6801;53.018;11.560;2023-07-24T04:02:40;1.85;;;1.55;;
13457;SDS011;6801;53.018;11.560;2023-07-24T04:05:07;2.53;;;1.52;;
13457;SDS011;6801;53.018;11.560;2023-07-24T04:07:34;1.63;;;1.10;;
13457;SDS011;6801;53.018;11.560;2023-07-24T04:10:02;2.03;;;1.38;;
13457;SDS011;6801;53.018;11.560;2023-07-24T04:12:31;2.25;;;1.60;;
13457;SDS011;6801;53.018;11.560;2023-07-24T04:14:58;2.65;;;1.75;;
13457;SDS011;6801;53.018;11.560;2023-07-24T04:17:25;2.58;;;1.42;;
13457;SDS011;6801;53.018;11.560;2023-07-24T04:19:53;1.73;;;1.30;;
13457;SDS011;6801;53.018;11.560;2023-07-24T04:22:20;2.30;;;1.33;;
13457;SDS011;6801;53.018;11.560;2023-07-24T04:24:47;3.80;;;1.75;;
13457;SDS011;6801;53.018;11.560;2023-07-24T04:27:14;3.17;;;1.67;;
13457;SDS011;6801;53.018;11.560;2023-07-24T04:29:41;2.58;;;1.65;;
13457;SDS011;6801;53.018;11.560;2023-07-24T04:32:08;2.15;;;1.50;;
13457;SDS011;6801;53.018;11.560;2023-07-24T04:34:35;2.10;;;1.40;;
13457;SDS011;6801;53.018;11.560;2023-07-24T04:37:04;1.92;;;1.70;;
13457;SDS011;6801;53.018;11.560;2023-07-24T04:39:31;1.80;;;1.40;;
13457;SDS011;6801;53.018;11.560;2023-07-24T04:41:58;1.70;;;1.17;;
13457;SDS011;6801;53.018;11.560;2023-07-24T04:44:25;4.50;;;2.10;;
13457;SDS011;6801;53.018;11.560;2023-07-24T04:46:52;3.20;;;1.38;;
13457;SDS011;6801;53.018;11.560;2023-07-24T04:49:21;3.33;;;1.60;;
13457;SDS011;6801;53.018;11.560;2023-07-24T04:51:48;3.20;;;1.60;;
13457;SDS011;6801;53.018;11.560;2023-07-24T04:54:17;3.92;;;1.80;;
13457;SDS011;6801;53.018;11.560;2023-07-24T04:56:44;3.83;;;1.88;;
13457;SDS011;6801;53.018;11.560;2023-07-24T04:59:11;1.98;;;1.52;;
13457;SDS011;6801;53.018;11.560;2023-07-24T05:01:38;1.77;;;1.48;;
13457;SDS011;6801;53.018;11.560;2023-07-24T05:04:05;1.30;;;1.13;;
13457;SDS011;6801;53.018;11.560;2023-07-24T05:06:32;3.03;;;1.63;;
13457;SDS011;6801;53.018;11.560;2023-07-24T05:09:00;4.18;;;1.52;;
13457;SDS011;6801;53.018;11.560;2023-07-24T05:11:29;3.65;;;1.40;;
13457;SDS011;6801;53.018;11.560;2023-07-24T05:13:56;2.35;;;1.50;;
13457;SDS011;6801;53.018;11.560;2023-07-24T05:16:23;2.08;;;1.60;;
13457;SDS011;6801;53.018;11.560;2023-07-24T05:18:50;1.88;;;1.48;;
13457;SDS011;6801;53.018;11.560;2023-07-24T05:21:17;3.45;;;1.50;;
13457;SDS011;6801;53.018;11.560;2023-07-24T05:23:44;1.77;;;1.42;;
13457;SDS011;6801;53.018;11.560;2023-07-24T05:26:11;2.20;;;1.65;;
13457;SDS011;6801;53.018;11.560;2023-07-24T05:28:39;2.25;;;1.50;;
13457;SDS011;6801;53.018;11.560;2023-07-24T05:31:06;2.15;;;1.33;;
13457;SDS011;6801;53.018;11.560;2023-07-24T05:33:33;1.83;;;1.40;;
13457;SDS011;6801;53.018;11.560;2023-07-24T05:36:01;2.28;;;1.25;;
13457;SDS011;6801;53.018;11.560;2023-07-24T05:38:29;3.85;;;1.70;;
13457;SDS011;6801;53.018;11.560;2023-07-24T05:40:57;1.90;;;1.50;;
13457;SDS011;6801;53.018;11.560;2023-07-24T05:43:24;1.95;;;1.45;;
13457;SDS011;6801;53.018;11.560;2023-07-24T05:45:53;2.22;;;1.33;;
13457;SDS011;6801;53.018;11.560;2023-07-24T05:48:21;3.25;;;1.70;;
13457;SDS011;6801;53.018;11.560;2023-07-24T05:50:49;3.45;;;1.58;;
13457;SDS011;6801;53.018;11.560;2023-07-24T05:53:16;4.25;;;1.80;;
13457;SDS011;6801;53.018;11.560;2023-07-24T05:55:43;3.75;;;1.70;;
13457;SDS011;6801;53.018;11.560;2023-07-24T05:58:11;2.63;;;1.67;;
13457;SDS011;6801;53.018;11.560;2023-07-24T06:00:38;1.80;;;1.42;;
13457;SDS011;6801;53.018;11.560;2023-07-24T06:03:06;2.58;;;1.55;;
13457;SDS011;6801;53.018;11.560;2023-07-24T06:05:33;2.65;;;1.55;;
13457;SDS011;6801;53.018;11.560;2023-07-24T06:08:00;2.03;;;1.50;;
13457;SDS011;6801;53.018;11.560;2023-07-24T06:10:27;1.67;;;1.50;;
13457;SDS011;6801;53.018;11.560;2023-07-24T06:12:54;2.35;;;1.63;;
13457;SDS011;6801;53.018;11.560;2023-07-24T06:15:21;2.50;;;1.73;;
13457;SDS011;6801;53.018;11.560;2023-07-24T06:17:48;3.05;;;1.40;;
13457;SDS011;6801;53.018;11.560;2023-07-24T06:20:17;2.33;;;1.92;;
13457;SDS011;6801;53.018;11.560;2023-07-24T06:22:44;2.08;;;1.65;;
13457;SDS011;6801;53.018;11.560;2023-07-24T06:25:11;3.10;;;1.88;;
13457;SDS011;6801;53.018;11.560;2023-07-24T06:27:38;1.92;;;1.63;;
13457;SDS011;6801;53.018;11.560;2023-07-24T06:30:07;2.85;;;1.60;;
13457;SDS011;6801;53.018;11.560;2023-07-24T06:32:34;2.10;;;1.48;;
13457;SDS011;6801;53.018;11.560;2023-07-24T06:35:01;2.40;;;1.65;;
13457;SDS011;6801;53.018;11.560;2023-07-24T06:37:29;2.45;;;1.67;;
13457;SDS011;6801;53.018;11.560;2023-07-24T06:39:56;2.70;;;1.40;;
13457;SDS011;6801;53.018;11.560;2023-07-24T06:42:23;2.88;;;1.58;;
13457;SDS011;6801;53.018;11.560;2023-07-24T06:44:50;1.98;;;1.60;;
13457;SDS011;6801;53.018;11.560;2023-07-24T06:47:17;3.05;;;1.27;;
13457;SDS011;6801;53.018;11.560;2023-07-24T06:49:44;2.45;;;1.48;;
13457;SDS011;6801;53.018;11.560;2023-07-24T06:52:12;1.92;;;1.10;;
13457;SDS011;6801;53.018;11.560;2023-07-24T06:54:40;1.80;;;1.55;;
13457;SDS011;6801;53.018;11.560;2023-07-24T06:57:07;1.63;;;1.20;;
13457;SDS011;6801;53.018;11.560;2023-07-24T06:59:34;1.70;;;1.23;;
13457;SDS011;6801;53.018;11.560;2023-07-24T07:02:01;1.70;;;1.10;;
13457;SDS011;6801;53.018;11.560;2023-07-24T07:04:29;1.70;;;1.30;;
13457;SDS011;6801;53.018;11.560;2023-07-24T07:06:56;1.23;;;0.95;;
13457;SDS011;6801;53.018;11.560;2023-07-24T07:09:23;1.40;;;0.90;;
13457;SDS011;6801;53.018;11.560;2023-07-24T07:11:51;1.52;;;1.08;;
13457;SDS011;6801;53.018;11.560;2023-07-24T07:14:18;1.60;;;1.10;;
13457;SDS011;6801;53.018;11.560;2023-07-24T07:16:45;3.58;;;1.45;;
13457;SDS011;6801;53.018;11.560;2023-07-24T07:19:12;1.45;;;1.15;;
13457;SDS011;6801;53.018;11.560;2023-07-24T07:21:39;1.55;;;1.13;;
13457;SDS011;6801;53.018;11.560;2023-07-24T07:24:06;3.03;;;1.38;;
13457;SDS011;6801;53.018;11.560;2023-07-24T07:26:34;2.50;;;1.20;;
13457;SDS011;6801;53.018;11.560;2023-07-24T07:29:02;1.95;;;1.15;;
13457;SDS011;6801;53.018;11.560;2023-07-24T07:31:29;2.78;;;1.40;;
13457;SDS011;6801;53.018;11.560;2023-07-24T07:33:57;1.90;;;1.30;;
13457;SDS011;6801;53.018;11.560;2023-07-24T07:36:24;1.65;;;1.40;;
13457;SDS011;6801;53.018;11.560;2023-07-24T07:38:51;2.65;;;1.65;;
13457;SDS011;6801;53.018;11.560;2023-07-24T07:41:18;2.03;;;1.00;;
13457;SDS011;6801;53.018;11.560;2023-07-24T07:43:45;1.98;;;1.30;;
13457;SDS011;6801;53.018;11.560;2023-07-24T07:46:14;1.92;;;1.17;;
13457;SDS011;6801;53.018;11.560;2023-07-24T07:48:41;1.75;;;1.38;;
13457;SDS011;6801;53.018;11.560;2023-07-24T07:51:08;2.13;;;1.40;;
13457;SDS011;6801;53.018;11.560;2023-07-24T07:53:35;2.63;;;1.27;;
13457;SDS011;6801;53.018;11.560;2023-07-24T07:56:02;1.92;;;1.42;;
13457;SDS011;6801;53.018;11.560;2023-07-24T07:58:29;1.95;;;1.30;;
13457;SDS011;6801;53.018;11.560;2023-07-24T08:00:56;2.17;;;1.20;;
13457;SDS011;6801;53.018;11.560;2023-07-24T08:03:24;1.30;;;0.90;;
13457;SDS011;6801;53.018;11.560;2023-07-24T08:05:51;1.40;;;1.15;;
13457;SDS011;6801;53.018;11.560;2023-07-24T08:08:22;1.75;;;1.08;;
13457;SDS011;6801;53.018;11.560;2023-07-24T08:10:49;1.60;;;1.00;;
13457;SDS011;6801;53.018;11.560;2023-07-24T08:13:16;1.48;;;0.98;;
13457;SDS011;6801;53.018;11.560;2023-07-24T08:15:43;1.65;;;1.20;;
13457;SDS011;6801;53.018;11.560;2023-07-24T08:18:10;2.22;;;0.90;;
13457;SDS011;6801;53.018;11.560;2023-07-24T08:20:39;2.92;;;1.30;;
13457;SDS011;6801;53.018;11.560;2023-07-24T08:23:06;3.90;;;1.33;;
13457;SDS011;6801;53.018;11.560;2023-07-24T08:25:33;2.50;;;1.30;;
13457;SDS011;6801;53.018;11.560;2023-07-24T08:28:00;3.50;;;1.30;;
13457;SDS011;6801;53.018;11.560;2023-07-24T08:30:27;1.55;;;1.10;;
13457;SDS011;6801;53.018;11.560;2023-07-24T08:32:54;2.45;;;1.30;;
13457;SDS011;6801;53.018;11.560;2023-07-24T08:35:22;3.70;;;1.35;;
13457;SDS011;6801;53.018;11.560;2023-07-24T08:37:50;2.50;;;1.80;;
13457;SDS011;6801;53.018;11.560;2023-07-24T08:40:17;3.60;;;1.52;;
13457;SDS011;6801;53.018;11.560;2023-07-24T08:42:44;3.13;;;1.50;;
13457;SDS011;6801;53.018;11.560;2023-07-24T08:45:15;2.13;;;1.20;;
13457;SDS011;6801;53.018;11.560;2023-07-24T08:47:42;2.80;;;1.48;;
13457;SDS011;6801;53.018;11.560;2023-07-24T08:50:10;4.43;;;1.50;;
13457;SDS011;6801;53.018;11.560;2023-07-24T08:52:38;3.05;;;1.30;;
13457;SDS011;6801;53.018;11.560;2023-07-24T08:55:07;1.90;;;1.20;;
13457;SDS011;6801;53.018;11.560;2023-07-24T08:57:36;2.58;;;1.60;;
13457;SDS011;6801;53.018;11.560;2023-07-24T09:00:03;4.68;;;1.63;;
13457;SDS011;6801;53.018;11.560;2023-07-24T09:02:32;2.10;;;1.15;;
13457;SDS011;6801;53.018;11.560;2023-07-24T09:04:59;2.40;;;1.67;;
13457;SDS011;6801;53.018;11.560;2023-07-24T09:07:26;3.42;;;1.77;;
13457;SDS011;6801;53.018;11.560;2023-07-24T09:09:53;2.88;;;1.40;;
13457;SDS011;6801;53.018;11.560;2023-07-24T09:12:22;3.03;;;1.75;;
13457;SDS011;6801;53.018;11.560;2023-07-24T09:15:00;3.60;;;1.55;;
13457;SDS011;6801;53.018;11.560;2023-07-24T09:17:28;4.00;;;1.60;;
13457;SDS011;6801;53.018;11.560;2023-07-24T09:19:55;3.65;;;1.55;;
13457;SDS011;6801;53.018;11.560;2023-07-24T09:22:23;3.67;;;1.55;;
13457;SDS011;6801;53.018;11.560;2023-07-24T09:24:52;5.30;;;1.90;;
13457;SDS011;6801;53.018;11.560;2023-07-24T09:27:23;6.07;;;2.10;;
13457;SDS011;6801;53.018;11.560;2023-07-24T09:29:54;5.65;;;1.85;;
13457;SDS011;6801;53.018;11.560;2023-07-24T09:32:22;3.70;;;2.10;;
13457;SDS011;6801;53.018;11.560;2023-07-24T09:34:50;4.40;;;1.67;;
13457;SDS011;6801;53.018;11.560;2023-07-24T09:37:22;5.00;;;2.00;;
13457;SDS011;6801;53.018;11.560;2023-07-24T09:39:51;6.53;;;2.17;;
13457;SDS011;6801;53.018;11.560;2023-07-24T09:42:18;4.03;;;1.98;;
13457;SDS011;6801;53.018;11.560;2023-07-24T09:44:46;2.42;;;1.80;;
13457;SDS011;6801;53.018;11.560;2023-07-24T09:47:13;4.07;;;1.83;;
13457;SDS011;6801;53.018;11.560;2023-07-24T09:49:40;3.92;;;1.48;;
13457;SDS011;6801;53.018;11.560;2023-07-24T09:52:08;4.65;;;1.60;;
13457;SDS011;6801;53.018;11.560;2023-07-24T09:54:37;3.95;;;1.63;;
13457;SDS011;6801;53.018;11.560;2023-07-24T09:57:10;3.88;;;1.75;;
13457;SDS011;6801;53.018;11.560;2023-07-24T09:59:39;4.07;;;1.83;;
13457;SDS011;6801;53.018;11.560;2023-07-24T10:02:10;4.10;;;1.80;;
13457;SDS011;6801;53.018;11.560;2023-07-24T10:04:38;3.30;;;1.50;;
13457;SDS011;6801;53.018;11.560;2023-07-24T10:07:06;2.70;;;1.67;;
13457;SDS011;6801;53.018;11.560;2023-07-24T10:09:34;4.05;;;1.98;;
13457;SDS011;6801;53.018;11.560;2023-07-24T10:12:03;2.83;;;1.40;;
13457;SDS011;6801;53.018;11.560;2023-07-24T10:14:31;4.35;;;1.90;;
13457;SDS011;6801;53.018;11.560;2023-07-24T10:16:59;5.65;;;3.38;;
13457;SDS011;6801;53.018;11.560;2023-07-24T10:19:36;3.22;;;2.03;;
13457;SDS011;6801;53.018;11.560;2023-07-24T10:22:05;4.55;;;2.80;;
13457;SDS011;6801;53.018;11.560;2023-07-24T10:24:33;3.22;;;1.77;;
13457;SDS011;6801;53.018;11.560;2023-07-24T10:27:00;3.42;;;2.25;;
13457;SDS011;6801;53.018;11.560;2023-07-24T10:29:33;3.33;;;1.73;;
13457;SDS011;6801;53.018;11.560;2023-07-24T10:32:01;3.08;;;1.77;;
13457;SDS011;6801;53.018;11.560;2023-07-24T10:34:37;3.17;;;1.90;;
13457;SDS011;6801;53.018;11.560;2023-07-24T10:37:06;3.35;;;2.10;;
13457;SDS011;6801;53.018;11.560;2023-07-24T10:39:37;3.85;;;1.88;;
13457;SDS011;6801;53.018;11.560;2023-07-24T10:42:06;5.65;;;1.70;;
13457;SDS011;6801;53.018;11.560;2023-07-24T10:44:34;3.70;;;2.03;;
13457;SDS011;6801;53.018;11.560;2023-07-24T10:47:01;2.97;;;1.70;;
13457;SDS011;6801;53.018;11.560;2023-07-24T10:49:29;5.32;;;2.42;;
13457;SDS011;6801;53.018;11.560;2023-07-24T10:51:57;3.47;;;2.20;;
13457;SDS011;6801;53.018;11.560;2023-07-24T10:54:25;4.85;;;2.70;;
13457;SDS011;6801;53.018;11.560;2023-07-24T10:56:57;2.55;;;1.48;;
13457;SDS011;6801;53.018;11.560;2023-07-24T10:59:35;4.38;;;2.97;;
13457;SDS011;6801;53.018;11.560;2023-07-24T11:02:03;5.60;;;3.78;;
13457;SDS011;6801;53.018;11.560;2023-07-24T11:04:30;4.60;;;2.30;;
13457;SDS011;6801;53.018;11.560;2023-07-24T11:06:59;8.23;;;5.32;;
13457;SDS011;6801;53.018;11.560;2023-07-24T11:09:33;7.28;;;4.72;;
13457;SDS011;6801;53.018;11.560;2023-07-24T11:12:08;5.22;;;3.50;;
13457;SDS011;6801;53.018;11.560;2023-07-24T11:14:46;2.38;;;1.88;;
13457;SDS011;6801;53.018;11.560;2023-07-24T11:17:14;2.83;;;1.80;;
13457;SDS011;6801;53.018;11.560;2023-07-24T11:19:41;2.70;;;2.03;;
13457;SDS011;6801;53.018;11.560;2023-07-24T11:22:09;2.22;;;1.42;;
13457;SDS011;6801;53.018;11.560;2023-07-24T11:24:43;2.25;;;1.40;;
13457;SDS011;6801;53.018;11.560;2023-07-24T11:27:15;3.33;;;1.23;;
13457;SDS011;6801;53.018;11.560;2023-07-24T11:29:47;2.10;;;1.30;;
13457;SDS011;6801;53.018;11.560;2023-07-24T11:32:16;1.95;;;1.38;;
13457;SDS011;6801;53.018;11.560;2023-07-24T11:34:45;2.60;;;1.55;;
13457;SDS011;6801;53.018;11.560;2023-07-24T11:37:16;0.82;;;0.77;;
13457;SDS011;6801;53.018;11.560;2023-07-24T11:39:43;2.53;;;1.37;;
13457;SDS011;6801;53.018;11.560;2023-07-24T11:42:22;2.30;;;1.08;;
13457;SDS011;6801;53.018;11.560;2023-07-24T11:44:52;3.20;;;1.30;;
13457;SDS011;6801;53.018;11.560;2023-07-24T11:47:19;1.73;;;0.95;;
13457;SDS011;6801;53.018;11.560;2023-07-24T11:49:55;1.27;;;0.98;;
13457;SDS011;6801;53.018;11.560;2023-07-24T11:52:25;1.35;;;1.00;;
13457;SDS011;6801;53.018;11.560;2023-07-24T11:55:03;2.22;;;1.00;;
13457;SDS011;6801;53.018;11.560;2023-07-24T11:57:30;2.03;;;1.00;;
13457;SDS011;6801;53.018;11.560;2023-07-24T11:59:57;1.60;;;0.95;;
13457;SDS011;6801;53.018;11.560;2023-07-24T12:02:25;1.77;;;1.17;;
13457;SDS011;6801;53.018;11.560;2023-07-24T12:04:54;2.75;;;0.60;;
13457;SDS011;6801;53.018;11.560;2023-07-24T12:07:23;3.88;;;0.95;;
13457;SDS011;6801;53.018;11.560;2023-07-24T12:09:56;1.20;;;0.70;;
13457;SDS011;6801;53.018;11.560;2023-07-24T12:12:23;0.63;;;0.50;;
13457;SDS011;6801;53.018;11.560;2023-07-24T12:14:51;2.88;;;0.57;;
13457;SDS011;6801;53.018;11.560;2023-07-24T12:17:18;1.58;;;0.60;;
13457;SDS011;6801;53.018;11.560;2023-07-24T12:19:46;0.98;;;0.80;;
13457;SDS011;6801;53.018;11.560;2023-07-24T12:22:15;1.48;;;0.55;;
13457;SDS011;6801;53.018;11.560;2023-07-24T12:27:12;0.93;;;0.60;;
13457;SDS011;6801;53.018;11.560;2023-07-24T12:29:39;1.17;;;0.77;;
13457;SDS011;6801;53.018;11.560;2023-07-24T12:32:06;1.90;;;0.90;;
13457;SDS011;6801;53.018;11.560;2023-07-24T12:34:33;3.55;;;0.60;;
13457;SDS011;6801;53.018;11.560;2023-07-24T12:37:00;1.52;;;0.80;;
13457;SDS011;6801;53.018;11.560;2023-07-24T12:39:27;1.35;;;0.70;;
13457;SDS011;6801;53.018;11.560;2023-07-24T12:41:56;1.67;;;0.88;;
13457;SDS011;6801;53.018;11.560;2023-07-24T12:44:23;1.33;;;0.80;;
13457;SDS011;6801;53.018;11.560;2023-07-24T12:46:51;1.23;;;0.80;;
13457;SDS011;6801;53.018;11.560;2023-07-24T12:49:18;1.60;;;0.80;;
13457;SDS011;6801;53.018;11.560;2023-07-24T12:51:45;1.33;;;0.80;;
13457;SDS011;6801;53.018;11.560;2023-07-24T12:54:12;1.73;;;0.88;;
13457;SDS011;6801;53.018;11.560;2023-07-24T12:56:39;3.83;;;0.95;;
13457;SDS011;6801;53.018;11.560;2023-07-24T12:59:08;2.20;;;1.13;;
13457;SDS011;6801;53.018;11.560;2023-07-24T13:01:35;1.38;;;0.90;;
13457;SDS011;6801;53.018;11.560;2023-07-24T13:04:02;1.38;;;1.10;;
13457;SDS011;6801;53.018;11.560;2023-07-24T13:06:29;1.05;;;0.90;;
13457;SDS011;6801;53.018;11.560;2023-07-24T13:08:56;2.53;;;1.50;;
13457;SDS011;6801;53.018;11.560;2023-07-24T13:11:23;1.23;;;1.13;;
13457;SDS011;6801;53.018;11.560;2023-07-24T13:13:50;1.33;;;0.90;;
13457;SDS011;6801;53.018;11.560;2023-07-24T13:16:18;3.83;;;2.28;;
13457;SDS011;6801;53.018;11.560;2023-07-24T13:18:46;8.38;;;5.40;;
13457;SDS011;6801;53.018;11.560;2023-07-24T13:21:13;8.07;;;4.35;;
13457;SDS011;6801;53.018;11.560;2023-07-24T13:23:40;1.77;;;1.20;;
13457;SDS011;6801;53.018;11.560;2023-07-24T13:26:07;1.48;;;1.20;;
13457;SDS011;6801;53.018;11.560;2023-07-24T13:28:35;3.78;;;2.47;;
13457;SDS011;6801;53.018;11.560;2023-07-24T13:31:10;2.30;;;1.50;;
13457;SDS011;6801;53.018;11.560;2023-07-24T13:33:39;2.70;;;1.48;;
13457;SDS011;6801;53.018;11.560;2023-07-24T13:36:09;4.38;;;1.52;;
13457;SDS011;6801;53.018;11.560;2023-07-24T13:38:36;4.05;;;1.38;;
13457;SDS011;6801;53.018;11.560;2023-07-24T13:41:03;2.97;;;0.90;;
13457;SDS011;6801;53.018;11.560;2023-07-24T13:43:31;4.25;;;1.80;;
13457;SDS011;6801;53.018;11.560;2023-07-24T13:45:59;3.10;;;1.30;;
13457;SDS011;6801;53.018;11.560;2023-07-24T13:48:27;2.75;;;1.85;;
13457;SDS011;6801;53.018;11.560;2023-07-24T13:50:58;2.08;;;1.15;;
13457;SDS011;6801;53.018;11.560;2023-07-24T13:53:25;3.05;;;1.95;;
13457;SDS011;6801;53.018;11.560;2023-07-24T13:55:53;3.60;;;1.63;;
13457;SDS011;6801;53.018;11.560;2023-07-24T13:58:20;3.72;;;2.28;;
13457;SDS011;6801;53.018;11.560;2023-07-24T14:00:47;1.75;;;1.17;;
13457;SDS011;6801;53.018;11.560;2023-07-24T14:03:14;3.47;;;1.60;;
13457;SDS011;6801;53.018;11.560;2023-07-24T14:05:41;2.03;;;1.27;;
13457;SDS011;6801;53.018;11.560;2023-07-24T14:08:10;2.88;;;2.17;;
13457;SDS011;6801;53.018;11.560;2023-07-24T14:10:37;3.05;;;1.10;;
13457;SDS011;6801;53.018;11.560;2023-07-24T14:13:04;3.55;;;0.90;;
13457;SDS011;6801;53.018;11.560;2023-07-24T14:15:31;1.65;;;0.80;;
13457;SDS011;6801;53.018;11.560;2023-07-24T14:17:58;5.05;;;0.95;;
13457;SDS011;6801;53.018;11.560;2023-07-24T14:20:25;2.65;;;1.20;;
13457;SDS011;6801;53.018;11.560;2023-07-24T14:22:52;1.30;;;0.70;;
13457;SDS011;6801;53.018;11.560;2023-07-24T14:25:21;2.10;;;1.00;;
13457;SDS011;6801;53.018;11.560;2023-07-24T14:27:48;4.78;;;1.00;;
13457;SDS011;6801;53.018;11.560;2023-07-24T14:30:15;1.95;;;0.85;;
13457;SDS011;6801;53.018;11.560;2023-07-24T14:32:43;1.20;;;0.80;;
13457;SDS011;6801;53.018;11.560;2023-07-24T14:35:10;1.17;;;0.70;;
13457;SDS011;6801;53.018;11.560;2023-07-24T14:37:37;3.88;;;1.20;;
13457;SDS011;6801;53.018;11.560;2023-07-24T14:40:05;2.35;;;0.93;;
13457;SDS011;6801;53.018;11.560;2023-07-24T14:42:34;2.08;;;0.80;;
13457;SDS011;6801;53.018;11.560;2023-07-24T14:45:02;1.95;;;0.80;;
13457;SDS011;6801;53.018;11.560;2023-07-24T14:47:29;2.03;;;0.98;;
13457;SDS011;6801;53.018;11.560;2023-07-24T14:49:57;1.85;;;0.80;;
13457;SDS011;6801;53.018;11.560;2023-07-24T14:52:24;1.13;;;0.55;;
13457;SDS011;6801;53.018;11.560;2023-07-24T14:54:51;4.93;;;1.05;;